sensor_id;sensor_type;location;lat;lon;timestamp;pressure;altitude;pressure_sealevel;temperature;humidity
55291;BME280;41155;39.768;2.712;2023-04-08T00:00:14;101295.47;;;16.23;35.32
55291;BME280;41155;39.768;2.712;2023-04-08T00:02:42;101302.03;;;16.12;34.61
55291;BME280;41155;39.768;2.712;2023-04-08T00:05:08;101288.94;;;15.99;35.07
55291;BME280;41155;39.768;2.712;2023-04-08T00:07:33;101284.59;;;15.93;35.05
55291;BME280;41155;39.768;2.712;2023-04-08T00:09:59;101280.50;;;15.85;34.88
55291;BME280;41155;39.768;2.712;2023-04-08T00:12:25;101262.53;;;15.69;35.36
55291;BME280;41155;39.768;2.712;2023-04-08T00:14:50;101303.94;;;15.91;36.21
55291;BME280;41155;39.768;2.712;2023-04-08T00:17:16;101316.47;;;15.92;36.53
55291;BME280;41155;39.768;2.712;2023-04-08T00:19:42;101289.22;;;15.82;36.51
55291;BME280;41155;39.768;2.712;2023-04-08T00:22:08;101298.47;;;15.76;36.74
55291;BME280;41155;39.768;2.712;2023-04-08T00:24:34;101317.81;;;15.85;36.87
55291;BME280;41155;39.768;2.712;2023-04-08T00:27:00;101325.69;;;15.76;36.40
55291;BME280;41155;39.768;2.712;2023-04-08T00:29:27;101315.31;;;15.63;37.03
55291;BME280;41155;39.768;2.712;2023-04-08T00:31:52;101323.47;;;15.52;37.17
55291;BME280;41155;39.768;2.712;2023-04-08T00:34:18;101313.38;;;15.43;37.36
55291;BME280;41155;39.768;2.712;2023-04-08T00:36:44;101301.94;;;15.30;37.69
55291;BME280;41155;39.768;2.712;2023-04-08T00:39:12;101326.97;;;15.37;38.23
55291;BME280;41155;39.768;2.712;2023-04-08T00:41:37;101321.50;;;15.32;37.64
55291;BME280;41155;39.768;2.712;2023-04-08T00:44:03;101337.00;;;15.32;38.05
55291;BME280;41155;39.768;2.712;2023-04-08T00:46:30;101285.47;;;14.95;38.17
55291;BME280;41155;39.768;2.712;2023-04-08T00:48:59;101306.19;;;15.06;38.21
55291;BME280;41155;39.768;2.712;2023-04-08T00:51:27;101293.38;;;14.96;38.56
55291;BME280;41155;39.768;2.712;2023-04-08T00:53:53;101333.16;;;15.18;38.43
55291;BME280;41155;39.768;2.712;2023-04-08T00:56:20;101320.66;;;15.17;38.34
55291;BME280;41155;39.768;2.712;2023-04-08T00:58:46;101317.09;;;15.11;37.99
55291;BME280;41155;39.768;2.712;2023-04-08T01:01:19;101315.72;;;15.08;38.32
55291;BME280;41155;39.768;2.712;2023-04-08T01:04:06;101322.00;;;15.14;38.35
55291;BME280;41155;39.768;2.712;2023-04-08T01:09:20;101306.97;;;15.01;38.81
55291;BME280;41155;39.768;2.712;2023-04-08T01:11:49;101318.69;;;15.02;39.08
55291;BME280;41155;39.768;2.712;2023-04-08T01:14:19;101311.06;;;14.94;39.38
55291;BME280;41155;39.768;2.712;2023-04-08T01:16:46;101304.50;;;14.89;39.29
55291;BME280;41155;39.768;2.712;2023-04-08T01:19:26;101317.59;;;14.98;39.37
55291;BME280;41155;39.768;2.712;2023-04-08T01:21:54;101320.59;;;14.96;39.56
55291;BME280;41155;39.768;2.712;2023-04-08T01:24:25;101269.88;;;14.64;40.14
55291;BME280;41155;39.768;2.712;2023-04-08T01:26:53;101302.56;;;14.80;40.18
55291;BME280;41155;39.768;2.712;2023-04-08T01:29:21;101307.47;;;14.83;40.29
55291;BME280;41155;39.768;2.712;2023-04-08T01:31:49;101299.03;;;14.79;40.58
55291;BME280;41155;39.768;2.712;2023-04-08T01:34:15;101306.06;;;14.75;40.89
55291;BME280;41155;39.768;2.712;2023-04-08T01:36:44;101311.78;;;14.74;40.72
55291;BME280;41155;39.768;2.712;2023-04-08T01:39:11;101302.81;;;14.73;41.14
55291;BME280;41155;39.768;2.712;2023-04-08T01:41:38;101270.28;;;14.41;41.04
55291;BME280;41155;39.768;2.712;2023-04-08T01:44:04;101289.13;;;14.53;41.66
55291;BME280;41155;39.768;2.712;2023-04-08T01:46:31;101310.59;;;14.59;41.62
55291;BME280;41155;39.768;2.712;2023-04-08T01:48:58;101309.69;;;14.48;41.27
55291;BME280;41155;39.768;2.712;2023-04-08T01:51:24;101312.69;;;14.47;41.72
55291;BME280;41155;39.768;2.712;2023-04-08T01:53:51;101309.41;;;14.45;41.93
55291;BME280;41155;39.768;2.712;2023-04-08T01:56:20;101303.97;;;14.45;42.58
55291;BME280;41155;39.768;2.712;2023-04-08T01:58:50;101301.50;;;14.38;42.78
55291;BME280;41155;39.768;2.712;2023-04-08T02:01:19;101294.66;;;14.31;41.74
55291;BME280;41155;39.768;2.712;2023-04-08T02:03:46;101296.78;;;14.29;42.22
55291;BME280;41155;39.768;2.712;2023-04-08T02:06:12;101286.22;;;14.27;42.77
55291;BME280;41155;39.768;2.712;2023-04-08T02:08:38;101270.88;;;14.11;43.00
55291;BME280;41155;39.768;2.712;2023-04-08T02:11:03;101241.69;;;13.91;43.13
55291;BME280;41155;39.768;2.712;2023-04-08T02:13:30;101290.78;;;14.21;43.18
55291;BME280;41155;39.768;2.712;2023-04-08T02:16:23;101289.97;;;14.21;43.24
55291;BME280;41155;39.768;2.712;2023-04-08T02:18:57;101284.50;;;14.16;43.73
55291;BME280;41155;39.768;2.712;2023-04-08T02:21:30;101285.25;;;14.06;43.51
55291;BME280;41155;39.768;2.712;2023-04-08T02:23:57;101289.84;;;14.06;43.26
55291;BME280;41155;39.768;2.712;2023-04-08T02:26:24;101271.25;;;13.87;43.11
55291;BME280;41155;39.768;2.712;2023-04-08T02:28:52;101284.59;;;13.94;43.12
55291;BME280;41155;39.768;2.712;2023-04-08T02:31:19;101290.03;;;13.94;43.21
55291;BME280;41155;39.768;2.712;2023-04-08T02:33:46;101293.59;;;13.94;42.92
55291;BME280;41155;39.768;2.712;2023-04-08T02:36:14;101281.34;;;13.92;42.90
55291;BME280;41155;39.768;2.712;2023-04-08T02:38:39;101286.22;;;13.90;43.25
55291;BME280;41155;39.768;2.712;2023-04-08T02:41:05;101290.81;;;13.89;43.47
55291;BME280;41155;39.768;2.712;2023-04-08T02:43:30;101289.16;;;13.88;43.60
55291;BME280;41155;39.768;2.712;2023-04-08T02:45:59;101270.88;;;13.73;43.79
55291;BME280;41155;39.768;2.712;2023-04-08T02:48:28;101263.25;;;13.70;44.18
55291;BME280;41155;39.768;2.712;2023-04-08T02:50:53;101247.94;;;13.59;44.50
55291;BME280;41155;39.768;2.712;2023-04-08T02:53:19;101240.28;;;13.51;44.41
55291;BME280;41155;39.768;2.712;2023-04-08T02:55:44;101276.56;;;13.72;44.43
55291;BME280;41155;39.768;2.712;2023-04-08T02:58:10;101287.47;;;13.77;44.32
55291;BME280;41155;39.768;2.712;2023-04-08T03:00:35;101285.00;;;13.75;44.30
55291;BME280;41155;39.768;2.712;2023-04-08T03:03:04;101283.38;;;13.74;44.49
55291;BME280;41155;39.768;2.712;2023-04-08T03:05:29;101259.63;;;13.60;44.29
55291;BME280;41155;39.768;2.712;2023-04-08T03:07:55;101273.56;;;13.68;44.42
55291;BME280;41155;39.768;2.712;2023-04-08T03:10:20;101265.38;;;13.63;44.54
55291;BME280;41155;39.768;2.712;2023-04-08T03:12:46;101277.63;;;13.71;44.67
55291;BME280;41155;39.768;2.712;2023-04-08T03:15:12;101283.56;;;13.68;44.75
55291;BME280;41155;39.768;2.712;2023-04-08T03:17:38;101286.56;;;13.66;44.90
55291;BME280;41155;39.768;2.712;2023-04-08T03:20:04;101223.50;;;13.27;45.00
55291;BME280;41155;39.768;2.712;2023-04-08T03:22:30;101277.25;;;13.57;44.98
55291;BME280;41155;39.768;2.712;2023-04-08T03:24:55;101276.13;;;13.53;45.01
55291;BME280;41155;39.768;2.712;2023-04-08T03:27:21;101209.22;;;13.09;45.13
55291;BME280;41155;39.768;2.712;2023-04-08T03:29:46;101252.03;;;13.29;45.39
55291;BME280;41155;39.768;2.712;2023-04-08T03:32:12;101262.13;;;13.39;45.44
55291;BME280;41155;39.768;2.712;2023-04-08T03:34:38;101245.22;;;13.27;45.64
55291;BME280;41155;39.768;2.712;2023-04-08T03:37:03;101267.25;;;13.36;45.85
55291;BME280;41155;39.768;2.712;2023-04-08T03:39:29;101259.41;;;13.34;45.89
55291;BME280;41155;39.768;2.712;2023-04-08T03:41:55;101259.41;;;13.34;45.93
55291;BME280;41155;39.768;2.712;2023-04-08T03:44:21;101257.19;;;13.31;46.17
55291;BME280;41155;39.768;2.712;2023-04-08T03:46:46;101238.34;;;13.19;46.11
55291;BME280;41155;39.768;2.712;2023-04-08T03:49:12;101220.84;;;13.05;46.01
55291;BME280;41155;39.768;2.712;2023-04-08T03:51:37;101228.25;;;13.15;46.06
55291;BME280;41155;39.768;2.712;2023-04-08T03:54:03;101254.09;;;13.22;46.20
55291;BME280;41155;39.768;2.712;2023-04-08T03:56:28;101247.03;;;13.21;46.54
55291;BME280;41155;39.768;2.712;2023-04-08T03:58:53;101233.47;;;13.21;46.17
55291;BME280;41155;39.768;2.712;2023-04-08T04:01:19;101242.63;;;13.15;46.28
55291;BME280;41155;39.768;2.712;2023-04-08T04:03:45;101216.63;;;12.92;46.61
55291;BME280;41155;39.768;2.712;2023-04-08T04:06:11;101246.94;;;13.11;46.49
55291;BME280;41155;39.768;2.712;2023-04-08T04:08:36;101238.44;;;13.02;46.49
55291;BME280;41155;39.768;2.712;2023-04-08T04:11:01;101250.38;;;13.06;46.60
55291;BME280;41155;39.768;2.712;2023-04-08T04:13:27;101243.53;;;12.99;46.51
55291;BME280;41155;39.768;2.712;2023-04-08T04:15:52;101247.59;;;12.96;46.68
55291;BME280;41155;39.768;2.712;2023-04-08T04:18:18;101254.06;;;12.95;46.74
55291;BME280;41155;39.768;2.712;2023-04-08T04:20:43;101229.22;;;12.81;47.13
55291;BME280;41155;39.768;2.712;2023-04-08T04:23:09;101235.00;;;12.85;47.16
55291;BME280;41155;39.768;2.712;2023-04-08T04:25:34;101233.41;;;12.89;47.14
55291;BME280;41155;39.768;2.712;2023-04-08T04:28:00;101232.78;;;12.82;47.05
55291;BME280;41155;39.768;2.712;2023-04-08T04:30:27;101230.31;;;12.80;47.25
55291;BME280;41155;39.768;2.712;2023-04-08T04:32:53;101219.91;;;12.72;47.17
55291;BME280;41155;39.768;2.712;2023-04-08T04:35:18;101238.50;;;12.85;47.32
55291;BME280;41155;39.768;2.712;2023-04-08T04:37:43;101235.16;;;12.78;47.30
55291;BME280;41155;39.768;2.712;2023-04-08T04:40:09;101224.59;;;12.77;47.26
55291;BME280;41155;39.768;2.712;2023-04-08T04:42:35;101249.84;;;12.82;47.14
55291;BME280;41155;39.768;2.712;2023-04-08T04:45:01;101249.78;;;12.77;47.17
55291;BME280;41155;39.768;2.712;2023-04-08T04:47:26;101233.44;;;12.67;47.10
55291;BME280;41155;39.768;2.712;2023-04-08T04:49:52;101238.78;;;12.62;47.22
55291;BME280;41155;39.768;2.712;2023-04-08T04:52:17;101230.25;;;12.53;46.83
55291;BME280;41155;39.768;2.712;2023-04-08T04:54:43;101251.50;;;12.61;46.99
55291;BME280;41155;39.768;2.712;2023-04-08T04:57:08;101258.25;;;12.59;46.92
55291;BME280;41155;39.768;2.712;2023-04-08T04:59:35;101245.38;;;12.49;47.07
55291;BME280;41155;39.768;2.712;2023-04-08T05:02:01;101249.38;;;12.47;47.38
55291;BME280;41155;39.768;2.712;2023-04-08T05:04:26;101243.34;;;12.39;47.49
55291;BME280;41155;39.768;2.712;2023-04-08T05:06:52;101255.31;;;12.43;47.85
55291;BME280;41155;39.768;2.712;2023-04-08T05:09:17;101222.50;;;12.18;47.89
55291;BME280;41155;39.768;2.712;2023-04-08T05:11:43;101270.81;;;12.48;48.26
55291;BME280;41155;39.768;2.712;2023-04-08T05:14:08;101254.69;;;12.36;48.73
55291;BME280;41155;39.768;2.712;2023-04-08T05:16:34;101277.06;;;12.49;48.72
55291;BME280;41155;39.768;2.712;2023-04-08T05:18:59;101259.59;;;12.39;48.67
55291;BME280;41155;39.768;2.712;2023-04-08T05:21:25;101263.38;;;12.38;48.73
55291;BME280;41155;39.768;2.712;2023-04-08T05:23:51;101281.88;;;12.47;48.59
55291;BME280;41155;39.768;2.712;2023-04-08T05:26:20;101287.31;;;12.47;48.29
55291;BME280;41155;39.768;2.712;2023-04-08T05:28:47;101286.75;;;12.44;48.48
55291;BME280;41155;39.768;2.712;2023-04-08T05:31:16;101283.16;;;12.39;48.32
55291;BME280;41155;39.768;2.712;2023-04-08T05:33:42;101239.69;;;12.12;48.69
55291;BME280;41155;39.768;2.712;2023-04-08T05:36:08;101286.91;;;12.38;48.57
55291;BME280;41155;39.768;2.712;2023-04-08T05:38:34;101295.81;;;12.33;48.70
55291;BME280;41155;39.768;2.712;2023-04-08T05:41:00;101284.81;;;12.23;49.12
55291;BME280;41155;39.768;2.712;2023-04-08T05:43:25;101295.63;;;12.23;48.97
55291;BME280;41155;39.768;2.712;2023-04-08T05:45:51;101258.19;;;11.98;49.05
55291;BME280;41155;39.768;2.712;2023-04-08T05:48:16;101289.91;;;12.19;48.96
55291;BME280;41155;39.768;2.712;2023-04-08T05:50:42;101290.56;;;12.27;48.64
55291;BME280;41155;39.768;2.712;2023-04-08T05:53:08;101290.22;;;12.23;48.87
55291;BME280;41155;39.768;2.712;2023-04-08T05:55:34;101296.22;;;12.25;48.77
55291;BME280;41155;39.768;2.712;2023-04-08T05:58:00;101291.88;;;12.24;48.89
55291;BME280;41155;39.768;2.712;2023-04-08T06:00:25;101293.50;;;12.25;49.05
55291;BME280;41155;39.768;2.712;2023-04-08T06:02:51;101289.19;;;12.24;49.24
55291;BME280;41155;39.768;2.712;2023-04-08T06:05:16;101260.81;;;12.10;49.01
55291;BME280;41155;39.768;2.712;2023-04-08T06:07:43;101282.19;;;12.28;49.09
55291;BME280;41155;39.768;2.712;2023-04-08T06:10:09;101255.94;;;12.12;49.06
55291;BME280;41155;39.768;2.712;2023-04-08T06:12:35;101282.19;;;12.28;49.12
55291;BME280;41155;39.768;2.712;2023-04-08T06:15:03;101250.47;;;12.07;48.99
55291;BME280;41155;39.768;2.712;2023-04-08T06:17:28;101268.00;;;12.21;49.15
55291;BME280;41155;39.768;2.712;2023-04-08T06:19:54;101275.06;;;12.22;48.73
55291;BME280;41155;39.768;2.712;2023-04-08T06:22:19;101237.34;;;11.98;49.00
55291;BME280;41155;39.768;2.712;2023-04-08T06:24:46;101280.56;;;12.27;49.02
55291;BME280;41155;39.768;2.712;2023-04-08T06:27:12;101281.59;;;12.26;49.66
55291;BME280;41155;39.768;2.712;2023-04-08T06:29:38;101256.78;;;12.12;49.66
55291;BME280;41155;39.768;2.712;2023-04-08T06:32:03;101264.97;;;12.17;49.85
55291;BME280;41155;39.768;2.712;2023-04-08T06:34:30;101161.44;;;11.54;49.44
55291;BME280;41155;39.768;2.712;2023-04-08T06:36:55;101239.66;;;12.07;49.28
55291;BME280;41155;39.768;2.712;2023-04-08T06:39:21;101293.50;;;12.42;49.38
55291;BME280;41155;39.768;2.712;2023-04-08T06:41:47;101284.47;;;12.36;49.29
55291;BME280;41155;39.768;2.712;2023-04-08T06:44:12;101271.94;;;12.30;49.50
55291;BME280;41155;39.768;2.712;2023-04-08T06:46:38;101293.81;;;12.46;49.67
55291;BME280;41155;39.768;2.712;2023-04-08T06:49:03;101290.59;;;12.49;49.48
55291;BME280;41155;39.768;2.712;2023-04-08T06:51:31;101288.47;;;12.51;49.30
55291;BME280;41155;39.768;2.712;2023-04-08T06:53:56;101292.31;;;12.55;48.94
55291;BME280;41155;39.768;2.712;2023-04-08T06:56:22;101267.84;;;12.50;48.64
55291;BME280;41155;39.768;2.712;2023-04-08T06:58:47;101280.81;;;12.64;48.30
55291;BME280;41155;39.768;2.712;2023-04-08T07:01:13;101272.28;;;12.56;47.87
55291;BME280;41155;39.768;2.712;2023-04-08T07:03:40;101251.50;;;12.61;47.32
55291;BME280;41155;39.768;2.712;2023-04-08T07:06:05;101287.81;;;12.82;47.06
55291;BME280;41155;39.768;2.712;2023-04-08T07:08:31;101289.22;;;12.90;46.81
55291;BME280;41155;39.768;2.712;2023-04-08T07:10:56;101296.09;;;12.98;46.42
55291;BME280;41155;39.768;2.712;2023-04-08T07:13:22;101270.09;;;12.97;46.04
55291;BME280;41155;39.768;2.712;2023-04-08T07:15:47;101280.56;;;13.15;45.84
55291;BME280;41155;39.768;2.712;2023-04-08T07:18:13;101259.41;;;13.12;45.23
55291;BME280;41155;39.768;2.712;2023-04-08T07:20:38;101277.53;;;13.33;44.54
55291;BME280;41155;39.768;2.712;2023-04-08T07:23:06;101284.97;;;13.43;44.32
55291;BME280;41155;39.768;2.712;2023-04-08T07:25:32;101257.56;;;13.40;44.62
55291;BME280;41155;39.768;2.712;2023-04-08T07:27:58;101259.03;;;13.52;45.06
55291;BME280;41155;39.768;2.712;2023-04-08T07:30:23;101280.09;;;13.72;45.53
55291;BME280;41155;39.768;2.712;2023-04-08T07:32:49;101270.06;;;13.73;45.66
55291;BME280;41155;39.768;2.712;2023-04-08T07:35:14;101278.59;;;13.87;45.75
55291;BME280;41155;39.768;2.712;2023-04-08T07:37:48;101266.63;;;13.88;45.30
55291;BME280;41155;39.768;2.712;2023-04-08T07:40:13;101294.25;;;14.12;44.86
55291;BME280;41155;39.768;2.712;2023-04-08T07:42:38;101300.28;;;14.19;44.06
55291;BME280;41155;39.768;2.712;2023-04-08T07:45:04;101288.59;;;14.18;42.84
55291;BME280;41155;39.768;2.712;2023-04-08T07:47:30;101286.72;;;14.24;41.99
55291;BME280;41155;39.768;2.712;2023-04-08T07:49:55;101290.81;;;14.27;41.25
55291;BME280;41155;39.768;2.712;2023-04-08T07:52:21;101299.03;;;14.37;40.71
55291;BME280;41155;39.768;2.712;2023-04-08T07:54:46;101311.59;;;14.48;41.21
55291;BME280;41155;39.768;2.712;2023-04-08T07:57:12;101314.88;;;14.50;40.10
55291;BME280;41155;39.768;2.712;2023-04-08T07:59:37;101321.19;;;14.56;39.48
55291;BME280;41155;39.768;2.712;2023-04-08T08:02:03;101331.84;;;14.67;41.07
55291;BME280;41155;39.768;2.712;2023-04-08T08:04:28;101321.28;;;14.71;41.36
55291;BME280;41155;39.768;2.712;2023-04-08T08:06:54;101313.66;;;14.68;39.67
55291;BME280;41155;39.768;2.712;2023-04-08T08:09:19;101346.41;;;14.94;38.86
55291;BME280;41155;39.768;2.712;2023-04-08T08:11:45;101340.16;;;14.98;37.81
55291;BME280;41155;39.768;2.712;2023-04-08T08:14:10;101323.56;;;14.95;38.50
55291;BME280;41155;39.768;2.712;2023-04-08T08:16:38;101330.69;;;15.11;38.33
55291;BME280;41155;39.768;2.712;2023-04-08T08:19:03;101349.53;;;15.28;37.93
55291;BME280;41155;39.768;2.712;2023-04-08T08:21:32;101348.47;;;15.39;37.30
55291;BME280;41155;39.768;2.712;2023-04-08T08:23:57;101353.38;;;15.47;37.43
55291;BME280;41155;39.768;2.712;2023-04-08T08:26:23;101335.44;;;15.51;38.28
55291;BME280;41155;39.768;2.712;2023-04-08T08:28:49;101336.53;;;15.60;38.78
55291;BME280;41155;39.768;2.712;2023-04-08T08:31:14;101349.94;;;15.77;37.59
55291;BME280;41155;39.768;2.712;2023-04-08T08:33:40;101343.97;;;15.86;36.51
55291;BME280;41155;39.768;2.712;2023-04-08T08:36:05;101320.25;;;15.81;37.00
55291;BME280;41155;39.768;2.712;2023-04-08T08:38:31;101337.72;;;16.06;37.73
55291;BME280;41155;39.768;2.712;2023-04-08T08:40:58;101350.78;;;16.19;38.58
55291;BME280;41155;39.768;2.712;2023-04-08T08:43:25;101310.19;;;16.02;38.66
55291;BME280;41155;39.768;2.712;2023-04-08T08:45:50;101338.78;;;16.25;38.92
55291;BME280;41155;39.768;2.712;2023-04-08T08:48:16;101325.69;;;16.22;38.80
55291;BME280;41155;39.768;2.712;2023-04-08T08:50:42;101360.00;;;16.54;39.05
55291;BME280;41155;39.768;2.712;2023-04-08T08:53:07;101346.66;;;16.52;38.58
55291;BME280;41155;39.768;2.712;2023-04-08T08:55:33;101356.69;;;16.72;39.31
55291;BME280;41155;39.768;2.712;2023-04-08T08:57:59;101346.63;;;16.72;38.94
55291;BME280;41155;39.768;2.712;2023-04-08T09:00:36;101358.56;;;16.92;38.13
55291;BME280;41155;39.768;2.712;2023-04-08T09:03:22;101338.41;;;16.88;38.37
55291;BME280;41155;39.768;2.712;2023-04-08T09:05:55;101352.78;;;17.04;38.37
55291;BME280;41155;39.768;2.712;2023-04-08T09:10:50;101370.41;;;17.37;38.09
55291;BME280;41155;39.768;2.712;2023-04-08T09:13:16;101356.72;;;17.42;37.60
55291;BME280;41155;39.768;2.712;2023-04-08T09:16:08;101365.94;;;17.56;37.46
55291;BME280;41155;39.768;2.712;2023-04-08T09:18:35;101346.84;;;17.51;37.34
55291;BME280;41155;39.768;2.712;2023-04-08T09:21:02;101327.47;;;17.48;37.36
55291;BME280;41155;39.768;2.712;2023-04-08T09:23:41;101368.81;;;17.80;37.65
55291;BME280;41155;39.768;2.712;2023-04-08T09:26:14;101348.06;;;17.79;37.61
55291;BME280;41155;39.768;2.712;2023-04-08T09:28:42;101356.09;;;18.00;37.70
55291;BME280;41155;39.768;2.712;2023-04-08T09:31:27;101344.63;;;17.98;37.69
55291;BME280;41155;39.768;2.712;2023-04-08T09:33:55;101343.25;;;18.00;37.84
55291;BME280;41155;39.768;2.712;2023-04-08T09:36:21;101351.88;;;18.13;37.89
55291;BME280;41155;39.768;2.712;2023-04-08T09:38:47;101363.94;;;18.41;37.72
55291;BME280;41155;39.768;2.712;2023-04-08T09:41:17;101363.59;;;18.47;37.82
55291;BME280;41155;39.768;2.712;2023-04-08T09:43:44;101364.31;;;18.58;37.90
55291;BME280;41155;39.768;2.712;2023-04-08T09:46:14;101363.09;;;18.69;37.80
55291;BME280;41155;39.768;2.712;2023-04-08T09:48:48;101364.94;;;18.79;37.99
55291;BME280;41155;39.768;2.712;2023-04-08T09:51:15;101365.66;;;18.90;37.82
55291;BME280;41155;39.768;2.712;2023-04-08T09:53:46;101369.91;;;19.01;37.94
55291;BME280;41155;39.768;2.712;2023-04-08T09:56:13;101363.19;;;19.12;37.69
55291;BME280;41155;39.768;2.712;2023-04-08T09:58:42;101369.81;;;19.30;37.22
55291;BME280;41155;39.768;2.712;2023-04-08T10:01:13;101369.44;;;19.37;37.11
55291;BME280;41155;39.768;2.712;2023-04-08T10:03:39;101369.91;;;19.44;36.80
55291;BME280;41155;39.768;2.712;2023-04-08T10:06:10;101373.06;;;19.51;36.85
55291;BME280;41155;39.768;2.712;2023-04-08T10:08:36;101339.53;;;19.40;36.79
55291;BME280;41155;39.768;2.712;2023-04-08T10:11:02;101353.78;;;19.61;37.12
55291;BME280;41155;39.768;2.712;2023-04-08T10:13:27;101366.13;;;19.78;37.28
55291;BME280;41155;39.768;2.712;2023-04-08T10:18:45;101346.94;;;19.97;37.77
55291;BME280;41155;39.768;2.712;2023-04-08T10:21:35;101367.63;;;20.22;37.79
55291;BME280;41155;39.768;2.712;2023-04-08T10:24:05;101368.88;;;20.29;38.03
55291;BME280;41155;39.768;2.712;2023-04-08T10:26:33;101363.38;;;20.29;38.42
55291;BME280;41155;39.768;2.712;2023-04-08T10:31:43;101374.81;;;20.50;38.54
55291;BME280;41155;39.768;2.712;2023-04-08T10:34:18;101382.38;;;20.59;38.91
55291;BME280;41155;39.768;2.712;2023-04-08T10:36:45;101356.56;;;20.60;39.84
55291;BME280;41155;39.768;2.712;2023-04-08T10:39:14;101373.34;;;20.86;39.75
55291;BME280;41155;39.768;2.712;2023-04-08T10:41:49;101380.47;;;21.01;39.30
55291;BME280;41155;39.768;2.712;2023-04-08T10:44:19;101380.25;;;21.11;38.73
55291;BME280;41155;39.768;2.712;2023-04-08T10:46:45;101370.31;;;21.15;38.68
55291;BME280;41155;39.768;2.712;2023-04-08T10:49:12;101373.72;;;21.34;38.81
55291;BME280;41155;39.768;2.712;2023-04-08T10:51:38;101376.91;;;21.41;39.74
55291;BME280;41155;39.768;2.712;2023-04-08T10:54:05;101381.44;;;21.60;38.78
55291;BME280;41155;39.768;2.712;2023-04-08T10:56:31;101388.75;;;21.64;38.66
55291;BME280;41155;39.768;2.712;2023-04-08T10:58:57;101381.69;;;21.72;38.85
55291;BME280;41155;39.768;2.712;2023-04-08T11:01:24;101384.28;;;21.91;38.21
55291;BME280;41155;39.768;2.712;2023-04-08T11:03:50;101352.97;;;21.78;39.03
55291;BME280;41155;39.768;2.712;2023-04-08T11:06:15;101362.28;;;21.91;39.03
55291;BME280;41155;39.768;2.712;2023-04-08T11:08:42;101381.22;;;22.15;40.12
55291;BME280;41155;39.768;2.712;2023-04-08T11:11:09;101332.06;;;22.14;38.78
55291;BME280;41155;39.768;2.712;2023-04-08T11:13:37;101377.72;;;22.46;38.68
55291;BME280;41155;39.768;2.712;2023-04-08T11:16:05;101371.56;;;22.40;39.21
55291;BME280;41155;39.768;2.712;2023-04-08T11:18:33;101368.22;;;22.52;39.28
55291;BME280;41155;39.768;2.712;2023-04-08T11:20:59;101373.75;;;22.61;39.81
55291;BME280;41155;39.768;2.712;2023-04-08T11:23:26;101356.44;;;22.60;39.42
55291;BME280;41155;39.768;2.712;2023-04-08T11:25:51;101377.44;;;22.87;40.03
55291;BME280;41155;39.768;2.712;2023-04-08T11:28:17;101381.56;;;23.07;39.00
55291;BME280;41155;39.768;2.712;2023-04-08T11:30:43;101349.81;;;23.01;38.41
55291;BME280;41155;39.768;2.712;2023-04-08T11:33:09;101359.25;;;23.17;38.67
55291;BME280;41155;39.768;2.712;2023-04-08T11:35:41;101343.88;;;23.34;37.75
55291;BME280;41155;39.768;2.712;2023-04-08T11:38:08;101375.66;;;23.40;37.93
55291;BME280;41155;39.768;2.712;2023-04-08T11:40:33;101372.72;;;23.36;38.27
55291;BME280;41155;39.768;2.712;2023-04-08T11:43:08;101351.31;;;23.24;37.73
55291;BME280;41155;39.768;2.712;2023-04-08T11:45:37;101357.47;;;23.21;38.07
55291;BME280;41155;39.768;2.712;2023-04-08T11:48:09;101376.63;;;23.35;39.03
55291;BME280;41155;39.768;2.712;2023-04-08T11:50:34;101343.56;;;23.44;38.14
55291;BME280;41155;39.768;2.712;2023-04-08T11:53:00;101356.56;;;23.61;37.10
55291;BME280;41155;39.768;2.712;2023-04-08T11:55:26;101365.81;;;23.74;37.11
55291;BME280;41155;39.768;2.712;2023-04-08T11:57:52;101362.25;;;23.82;37.37
55291;BME280;41155;39.768;2.712;2023-04-08T12:00:19;101346.34;;;23.96;37.26
55291;BME280;41155;39.768;2.712;2023-04-08T12:02:45;101339.16;;;24.12;38.56
55291;BME280;41155;39.768;2.712;2023-04-08T12:05:12;101367.19;;;24.32;37.44
55291;BME280;41155;39.768;2.712;2023-04-08T12:07:38;101343.69;;;24.26;36.89
55291;BME280;41155;39.768;2.712;2023-04-08T12:10:04;101357.28;;;24.40;37.04
55291;BME280;41155;39.768;2.712;2023-04-08T12:12:29;101356.31;;;24.44;36.05
55291;BME280;41155;39.768;2.712;2023-04-08T12:14:55;101321.44;;;24.31;35.94
55291;BME280;41155;39.768;2.712;2023-04-08T12:17:24;101338.31;;;24.29;35.76
55291;BME280;41155;39.768;2.712;2023-04-08T12:19:49;101333.56;;;24.39;35.87
55291;BME280;41155;39.768;2.712;2023-04-08T12:22:15;101351.66;;;24.74;35.23
55291;BME280;41155;39.768;2.712;2023-04-08T12:24:41;101342.31;;;24.88;33.96
55291;BME280;41155;39.768;2.712;2023-04-08T12:27:06;101304.72;;;24.74;34.29
55291;BME280;41155;39.768;2.712;2023-04-08T12:29:32;101345.53;;;24.98;35.36
55291;BME280;41155;39.768;2.712;2023-04-08T12:31:58;101339.44;;;25.14;34.83
55291;BME280;41155;39.768;2.712;2023-04-08T12:34:24;101333.06;;;25.13;35.04
55291;BME280;41155;39.768;2.712;2023-04-08T12:36:49;101345.19;;;25.30;34.99
55291;BME280;41155;39.768;2.712;2023-04-08T12:39:15;101305.84;;;25.03;34.15
55291;BME280;41155;39.768;2.712;2023-04-08T12:41:41;101336.19;;;25.12;33.65
55291;BME280;41155;39.768;2.712;2023-04-08T12:44:06;101329.09;;;25.02;34.57
55291;BME280;41155;39.768;2.712;2023-04-08T12:46:32;101335.63;;;24.97;35.06
55291;BME280;41155;39.768;2.712;2023-04-08T12:48:57;101337.63;;;24.88;35.05
55291;BME280;41155;39.768;2.712;2023-04-08T12:51:23;101334.28;;;24.74;35.49
55291;BME280;41155;39.768;2.712;2023-04-08T12:53:50;101312.47;;;24.51;36.42
55291;BME280;41155;39.768;2.712;2023-04-08T12:56:16;101327.56;;;24.54;36.84
55291;BME280;41155;39.768;2.712;2023-04-08T12:58:41;101319.72;;;24.56;37.27